createdAt,value
2022-08-29T00:00:52.109Z,8.20
2022-08-29T00:03:21.096Z,8.80
2022-08-29T00:05:50.645Z,7.90
2022-08-29T00:08:20.121Z,8.50
2022-08-29T00:10:49.729Z,8.50
2022-08-29T00:13:18.720Z,7.10
2022-08-29T00:15:48.225Z,7.70
2022-08-29T00:18:19.573Z,8.10
2022-08-29T00:20:50.444Z,8.90
2022-08-29T00:23:20.969Z,9.60
2022-08-29T00:25:51.252Z,9.70
2022-08-29T00:28:20.654Z,8.30
2022-08-29T00:30:50.480Z,7.70
2022-08-29T00:33:22.448Z,7.40
2022-08-29T00:35:52.278Z,7.20
2022-08-29T00:38:26.432Z,8.70
2022-08-29T00:40:59.615Z,7.20
2022-08-29T00:43:34.389Z,7.10
2022-08-29T00:46:43.346Z,7.20
2022-08-29T00:49:24.991Z,8.50
2022-08-29T00:51:57.191Z,7.30
2022-08-29T00:54:28.689Z,7.50
2022-08-29T00:56:59.595Z,7.40
2022-08-29T00:59:37.334Z,7.00
2022-08-29T01:02:09.053Z,6.40
2022-08-29T01:04:40.530Z,7.70
2022-08-29T01:07:12.468Z,8.30
2022-08-29T01:09:47.947Z,7.60
2022-08-29T01:12:17.729Z,8.40
2022-08-29T01:15:01.106Z,7.90
2022-08-29T01:17:38.089Z,8.00
2022-08-29T01:20:34.059Z,7.90
2022-08-29T01:23:27.287Z,7.90
2022-08-29T01:25:57.603Z,7.60
2022-08-29T01:28:34.917Z,8.10
2022-08-29T01:31:55.751Z,8.50
2022-08-29T01:34:11.804Z,7.90
2022-08-29T01:36:56.194Z,7.10
2022-08-29T01:39:30.222Z,8.30
2022-08-29T01:42:04.265Z,10.20
2022-08-29T01:44:34.131Z,17.40
2022-08-29T01:47:03.655Z,12.60
2022-08-29T01:49:35.789Z,10.00
2022-08-29T01:52:12.629Z,10.10
2022-08-29T01:54:45.405Z,9.40
2022-08-29T01:57:16.183Z,9.60
2022-08-29T01:59:47.013Z,7.20
2022-08-29T02:02:24.025Z,7.40
2022-08-29T02:04:55.460Z,8.20
2022-08-29T02:07:27.003Z,8.00
2022-08-29T02:09:57.828Z,8.80
2022-08-29T02:12:28.523Z,9.20
2022-08-29T02:14:59.574Z,8.00
2022-08-29T02:17:30.462Z,7.60
2022-08-29T02:20:01.159Z,9.10
2022-08-29T02:22:31.934Z,9.30
2022-08-29T02:25:25.349Z,7.90
2022-08-29T02:27:56.330Z,7.10
2022-08-29T02:30:27.012Z,11.20
2022-08-29T02:32:58.046Z,10.00
2022-08-29T02:35:28.693Z,9.40
2022-08-29T02:38:01.178Z,9.30
2022-08-29T02:40:32.509Z,8.50
2022-08-29T02:43:03.381Z,8.40
2022-08-29T02:45:36.600Z,6.80
2022-08-29T02:48:07.555Z,7.00
2022-08-29T02:50:40.649Z,7.20
2022-08-29T02:53:12.038Z,8.30
2022-08-29T02:55:43.564Z,10.60
2022-08-29T02:58:15.169Z,10.40
2022-08-29T03:00:45.811Z,10.70
2022-08-29T03:03:15.584Z,8.00
2022-08-29T03:05:46.412Z,8.30
2022-08-29T03:08:16.997Z,8.50
2022-08-29T03:10:47.208Z,7.20
2022-08-29T03:13:19.298Z,8.30
2022-08-29T03:15:49.422Z,9.00
2022-08-29T03:18:20.691Z,8.00
2022-08-29T03:20:52.120Z,9.20
2022-08-29T03:23:22.449Z,8.70
2022-08-29T03:28:21.037Z,8.20
2022-08-29T03:30:51.584Z,8.60
2022-08-29T03:33:21.963Z,8.30
2022-08-29T03:35:52.411Z,8.10
2022-08-29T03:38:23.266Z,9.40
2022-08-29T03:40:52.662Z,8.50
2022-08-29T03:43:27.091Z,8.00
2022-08-29T03:45:56.889Z,8.50
2022-08-29T03:50:56.701Z,8.60
2022-08-29T03:53:27.871Z,7.60
2022-08-29T03:55:57.961Z,7.90
2022-08-29T03:58:27.324Z,7.60
2022-08-29T04:00:56.558Z,8.50
2022-08-29T04:03:30.885Z,7.40
2022-08-29T04:06:01.829Z,7.90
2022-08-29T04:08:31.789Z,8.30
2022-08-29T04:11:01.259Z,9.40
2022-08-29T04:13:30.927Z,9.70
2022-08-29T04:16:00.192Z,9.20
2022-08-29T04:18:29.892Z,8.80
2022-08-29T04:21:03.284Z,8.30
2022-08-29T04:23:33.698Z,7.70
2022-08-29T04:26:26.348Z,7.20
2022-08-29T04:28:53.472Z,7.00
2022-08-29T04:31:23.350Z,6.90
2022-08-29T04:33:53.475Z,6.90
2022-08-29T04:36:22.423Z,7.70
2022-08-29T04:38:51.615Z,7.40
2022-08-29T04:41:20.517Z,7.80
2022-08-29T04:43:49.983Z,7.50
2022-08-29T04:46:23.951Z,8.20
2022-08-29T04:48:54.773Z,6.60
2022-08-29T04:53:54.088Z,7.30
2022-08-29T04:58:52.572Z,7.10
2022-08-29T05:01:24.581Z,6.40
2022-08-29T05:03:54.760Z,7.70
2022-08-29T05:06:24.678Z,6.90
2022-08-29T05:08:58.836Z,7.10
2022-08-29T05:11:31.548Z,7.00
2022-08-29T05:14:02.950Z,7.30
2022-08-29T05:16:35.286Z,7.10
2022-08-29T05:19:06.763Z,6.40
2022-08-29T05:21:38.489Z,6.20
2022-08-29T05:24:11.020Z,6.00
2022-08-29T05:26:43.697Z,7.10
2022-08-29T05:29:14.075Z,6.70
2022-08-29T05:31:45.482Z,6.30
2022-08-29T05:34:34.382Z,5.50
2022-08-29T05:37:11.056Z,5.90
2022-08-29T05:39:40.152Z,5.40
2022-08-29T05:42:11.103Z,6.20
2022-08-29T05:44:40.904Z,6.20
2022-08-29T05:47:12.086Z,6.30
2022-08-29T05:49:43.205Z,6.50
2022-08-29T05:52:14.132Z,6.30
2022-08-29T05:54:44.754Z,5.70
2022-08-29T05:57:19.215Z,6.50
2022-08-29T05:59:54.112Z,5.70
2022-08-29T06:02:23.435Z,5.10
2022-08-29T06:04:52.806Z,5.20
2022-08-29T06:07:21.811Z,5.50
2022-08-29T06:09:53.372Z,5.30
2022-08-29T06:12:24.269Z,5.20
2022-08-29T06:14:54.206Z,5.40
2022-08-29T06:17:23.199Z,5.10
2022-08-29T06:19:52.903Z,5.00
2022-08-29T06:22:22.819Z,4.60
2022-08-29T06:24:57.695Z,4.50
2022-08-29T06:27:27.667Z,4.90
2022-08-29T06:30:00.120Z,4.20
2022-08-29T06:32:30.569Z,4.70
2022-08-29T06:35:00.181Z,5.00
2022-08-29T06:37:28.964Z,4.40
2022-08-29T06:39:57.781Z,4.80
2022-08-29T06:42:28.719Z,4.30
2022-08-29T06:44:58.295Z,4.50
2022-08-29T06:47:27.193Z,4.80
2022-08-29T06:49:56.076Z,4.80
2022-08-29T06:52:24.971Z,4.90
2022-08-29T06:57:22.648Z,5.60
2022-08-29T06:59:51.334Z,5.80
2022-08-29T07:02:20.286Z,6.10
2022-08-29T07:07:17.700Z,5.30
2022-08-29T07:09:47.933Z,5.70
2022-08-29T07:12:16.921Z,4.80
2022-08-29T07:17:25.787Z,5.10
2022-08-29T07:19:55.253Z,5.70
2022-08-29T07:22:23.837Z,5.00
2022-08-29T07:24:53.806Z,4.70
2022-08-29T07:27:23.151Z,4.60
2022-08-29T07:29:51.835Z,6.50
2022-08-29T07:34:56.208Z,6.40
2022-08-29T07:37:25.270Z,4.90
2022-08-29T07:39:54.641Z,4.80
2022-08-29T07:42:23.871Z,4.70
2022-08-29T07:44:52.620Z,5.60
2022-08-29T07:47:21.754Z,5.30
2022-08-29T07:49:50.744Z,5.80
2022-08-29T07:52:19.740Z,5.70
2022-08-29T07:57:18.234Z,4.80
2022-08-29T07:59:47.227Z,5.60
2022-08-29T08:07:17.315Z,5.60
2022-08-29T08:09:46.477Z,4.60
2022-08-29T08:12:17.003Z,4.20
2022-08-29T08:14:45.591Z,4.80
2022-08-29T08:17:14.483Z,4.80
2022-08-29T08:19:46.443Z,5.30
2022-08-29T08:22:15.440Z,5.20
2022-08-29T08:24:45.421Z,5.60
2022-08-29T08:27:14.132Z,4.50
2022-08-29T08:29:44.874Z,4.80
2022-08-29T08:32:13.654Z,4.10
2022-08-29T08:34:43.367Z,4.00
2022-08-29T08:37:12.853Z,4.20
2022-08-29T08:39:48.426Z,4.90
2022-08-29T08:42:43.014Z,5.10
2022-08-29T08:45:19.171Z,4.30
2022-08-29T08:47:53.396Z,4.80
2022-08-29T08:50:52.453Z,4.80
2022-08-29T08:53:42.368Z,4.10
2022-08-29T08:56:19.963Z,4.30
2022-08-29T08:59:03.393Z,4.90
2022-08-29T09:01:40.177Z,5.10
2022-08-29T09:04:27.279Z,4.50
2022-08-29T09:07:47.070Z,5.10
2022-08-29T09:10:32.818Z,4.80
2022-08-29T09:13:22.233Z,5.50
2022-08-29T09:15:56.612Z,4.30
2022-08-29T09:18:33.217Z,3.80
2022-08-29T09:21:40.144Z,5.00
2022-08-29T09:24:15.038Z,5.10
2022-08-29T09:26:43.992Z,5.60
2022-08-29T09:29:14.347Z,5.00
2022-08-29T09:31:43.740Z,5.10
2022-08-29T09:34:45.185Z,5.40
2022-08-29T09:37:28.736Z,3.80
2022-08-29T09:40:16.574Z,3.90
2022-08-29T09:43:01.953Z,3.90
2022-08-29T09:45:30.802Z,4.90
2022-08-29T09:48:16.626Z,4.90
2022-08-29T09:50:45.824Z,4.10
2022-08-29T09:53:24.759Z,4.30
2022-08-29T09:55:54.467Z,4.90
2022-08-29T09:58:24.593Z,5.10
2022-08-29T10:01:12.160Z,4.90
2022-08-29T10:04:03.028Z,4.80
2022-08-29T10:06:44.329Z,4.50
2022-08-29T10:09:29.095Z,4.60
2022-08-29T10:12:14.739Z,4.70
2022-08-29T10:14:53.932Z,4.40
2022-08-29T10:18:12.737Z,4.70
2022-08-29T10:20:47.469Z,5.10
2022-08-29T10:23:22.525Z,4.90
2022-08-29T10:25:51.895Z,4.80
2022-08-29T10:28:51.578Z,4.30
2022-08-29T10:31:36.523Z,5.00
2022-08-29T10:34:49.398Z,5.60
2022-08-29T10:37:55.460Z,4.70
2022-08-29T10:40:43.469Z,4.90
2022-08-29T10:43:30.412Z,5.40
2022-08-29T10:46:02.776Z,5.10
2022-08-29T10:48:39.978Z,4.50
2022-08-29T10:51:17.979Z,5.50
2022-08-29T10:53:57.001Z,6.40
2022-08-29T10:56:44.731Z,4.80
2022-08-29T11:02:13.332Z,5.50
2022-08-29T11:04:51.236Z,5.00
2022-08-29T11:07:40.710Z,4.80
2022-08-29T11:10:24.969Z,5.00
2022-08-29T11:13:02.451Z,4.10
2022-08-29T11:15:53.157Z,4.40
2022-08-29T11:18:47.850Z,4.50
2022-08-29T11:21:22.577Z,4.80
2022-08-29T11:23:52.402Z,5.50
2022-08-29T11:26:42.165Z,5.50
2022-08-29T11:29:39.936Z,4.70
2022-08-29T11:32:24.400Z,5.20
2022-08-29T11:35:24.064Z,5.40
2022-08-29T11:37:55.663Z,4.20
2022-08-29T11:41:25.732Z,4.20
2022-08-29T11:43:37.616Z,5.20
2022-08-29T11:46:09.845Z,5.30
2022-08-29T11:48:48.364Z,5.50
2022-08-29T11:51:37.647Z,4.60
2022-08-29T11:54:24.952Z,4.40
2022-08-29T11:57:02.851Z,4.30
2022-08-29T12:02:32.787Z,4.50
2022-08-29T12:05:03.208Z,4.70
2022-08-29T12:08:14.451Z,4.90
2022-08-29T12:10:57.531Z,4.90
2022-08-29T12:13:44.430Z,5.80
2022-08-29T12:16:18.389Z,5.40
2022-08-29T12:18:53.172Z,6.20
2022-08-29T12:21:37.314Z,5.30
2022-08-29T12:24:26.273Z,6.20
2022-08-29T12:26:56.190Z,5.70
2022-08-29T12:29:27.643Z,5.00
2022-08-29T12:32:22.540Z,6.00
2022-08-29T12:35:11.300Z,5.80
2022-08-29T12:40:39.735Z,6.60
2022-08-29T12:43:23.032Z,5.30
2022-08-29T12:45:52.739Z,6.30
2022-08-29T12:48:30.124Z,5.90
2022-08-29T12:50:59.140Z,6.30
2022-08-29T12:53:33.506Z,6.10
2022-08-29T12:56:20.345Z,6.10
2022-08-29T12:58:56.510Z,7.50
2022-08-29T13:01:28.292Z,6.80
2022-08-29T13:04:04.448Z,6.60
2022-08-29T13:06:34.648Z,6.80
2022-08-29T13:09:06.412Z,6.50
2022-08-29T13:11:36.625Z,6.10
2022-08-29T13:14:11.628Z,6.20
2022-08-29T13:16:41.147Z,6.80
2022-08-29T13:19:21.109Z,7.70
2022-08-29T13:21:49.800Z,7.30
2022-08-29T13:24:21.265Z,6.70
2022-08-29T13:27:02.812Z,7.10
2022-08-29T13:32:24.261Z,6.20
2022-08-29T13:35:15.098Z,6.20
2022-08-29T13:37:47.142Z,9.10
2022-08-29T13:40:37.304Z,9.30
2022-08-29T13:43:06.913Z,7.80
2022-08-29T13:45:36.648Z,9.20
2022-08-29T13:48:20.620Z,10.30
2022-08-29T13:50:49.317Z,9.10
2022-08-29T13:53:18.131Z,9.60
2022-08-29T13:55:46.963Z,9.40
2022-08-29T13:58:18.700Z,10.00
2022-08-29T14:00:47.710Z,9.90
2022-08-29T14:03:18.581Z,9.40
2022-08-29T14:05:47.550Z,9.40
2022-08-29T14:08:16.596Z,8.90
2022-08-29T14:10:46.032Z,8.30
2022-08-29T14:13:14.926Z,7.90
2022-08-29T14:15:44.068Z,9.70
2022-08-29T14:18:12.806Z,8.60
2022-08-29T14:20:41.593Z,11.40
2022-08-29T14:23:10.277Z,8.70
2022-08-29T14:25:38.862Z,9.20
2022-08-29T14:28:07.757Z,9.50
2022-08-29T14:30:37.359Z,9.70
2022-08-29T14:33:06.247Z,9.20
2022-08-29T14:35:42.368Z,8.20
2022-08-29T14:38:12.016Z,8.20
2022-08-29T14:40:41.259Z,8.20
2022-08-29T14:43:12.361Z,7.10
2022-08-29T14:48:09.736Z,7.10
2022-08-29T14:50:38.622Z,8.40
2022-08-29T14:53:07.735Z,8.80
2022-08-29T14:55:37.423Z,8.80
2022-08-29T14:58:06.006Z,8.40
2022-08-29T15:00:34.797Z,7.80
2022-08-29T15:03:04.213Z,10.10
2022-08-29T15:05:32.884Z,9.00
2022-08-29T15:08:06.541Z,9.80
2022-08-29T15:10:35.782Z,9.30
2022-08-29T15:13:05.705Z,8.80
2022-08-29T15:15:35.058Z,8.00
2022-08-29T15:18:06.013Z,7.90
2022-08-29T15:20:37.195Z,8.50
2022-08-29T15:23:07.102Z,8.60
2022-08-29T15:25:35.994Z,9.40
2022-08-29T15:28:05.912Z,8.00
2022-08-29T15:30:35.452Z,8.70
2022-08-29T15:33:04.606Z,9.40
2022-08-29T15:38:02.389Z,10.20
2022-08-29T15:40:31.263Z,9.40
2022-08-29T15:43:00.264Z,10.10
2022-08-29T15:45:29.670Z,11.30
2022-08-29T15:48:00.810Z,11.10
2022-08-29T15:50:30.446Z,10.00
2022-08-29T15:52:59.517Z,11.70
2022-08-29T15:55:28.305Z,12.70
2022-08-29T15:57:57.296Z,11.50
2022-08-29T16:00:30.216Z,11.10
2022-08-29T16:03:03.372Z,12.80
2022-08-29T16:05:33.633Z,12.70
2022-08-29T16:08:03.116Z,11.50
2022-08-29T16:10:34.942Z,13.20
2022-08-29T16:13:04.463Z,13.50
2022-08-29T16:15:34.322Z,13.20
2022-08-29T16:18:04.131Z,12.90
2022-08-29T16:20:33.423Z,14.20
2022-08-29T16:25:32.717Z,14.30
2022-08-29T16:28:03.498Z,15.20
2022-08-29T16:30:35.362Z,15.10
2022-08-29T16:33:06.751Z,14.60
2022-08-29T16:35:36.353Z,15.00
2022-08-29T16:38:04.940Z,15.20
2022-08-29T16:40:33.907Z,14.70
2022-08-29T16:43:04.814Z,14.70
2022-08-29T16:45:34.028Z,13.80
2022-08-29T16:48:04.757Z,16.10
2022-08-29T16:50:43.626Z,13.90
2022-08-29T16:53:12.310Z,15.30
2022-08-29T16:55:41.095Z,15.40
2022-08-29T16:58:28.178Z,14.00
2022-08-29T17:00:58.154Z,14.40
2022-08-29T17:03:27.429Z,12.40
2022-08-29T17:05:56.425Z,11.90
2022-08-29T17:08:25.624Z,11.40
2022-08-29T17:10:54.321Z,13.20
2022-08-29T17:13:23.607Z,14.90
2022-08-29T17:15:52.807Z,15.40
2022-08-29T17:18:21.491Z,15.60
2022-08-29T17:20:52.020Z,17.10
2022-08-29T17:23:20.807Z,16.40
2022-08-29T17:25:50.415Z,15.50
2022-08-29T17:28:20.675Z,13.30
2022-08-29T17:30:49.974Z,12.50
2022-08-29T17:33:20.158Z,12.90
2022-08-29T17:35:49.561Z,12.20
2022-08-29T17:38:18.574Z,13.00
2022-08-29T17:40:50.860Z,11.10
2022-08-29T17:43:19.916Z,11.20
2022-08-29T17:45:49.241Z,12.00
2022-08-29T17:48:19.956Z,12.60
2022-08-29T17:50:50.701Z,12.80
2022-08-29T17:53:20.779Z,12.40
2022-08-29T17:55:51.383Z,13.90
2022-08-29T17:58:21.787Z,14.00
2022-08-29T18:00:50.795Z,11.40
2022-08-29T18:03:19.943Z,13.70
2022-08-29T18:05:48.837Z,14.70
2022-08-29T18:08:17.820Z,14.20
2022-08-29T18:10:46.622Z,13.00
2022-08-29T18:13:19.743Z,14.20
2022-08-29T18:15:52.670Z,13.70
2022-08-29T18:18:22.013Z,14.40
2022-08-29T18:20:51.176Z,14.80
2022-08-29T18:23:20.090Z,16.30
2022-08-29T18:25:49.503Z,15.40
2022-08-29T18:28:18.279Z,16.60
2022-08-29T18:30:47.106Z,14.00
2022-08-29T18:33:16.168Z,15.70
2022-08-29T18:35:44.944Z,14.50
2022-08-29T18:38:15.137Z,15.20
2022-08-29T18:40:44.703Z,11.90
2022-08-29T18:43:15.364Z,14.10
2022-08-29T18:45:44.162Z,13.30
2022-08-29T18:48:13.107Z,14.30
2022-08-29T18:50:41.766Z,14.80
2022-08-29T18:53:22.072Z,13.90
2022-08-29T18:55:54.270Z,14.30
2022-08-29T18:58:27.279Z,14.30
2022-08-29T19:00:57.391Z,14.30
2022-08-29T19:03:26.394Z,13.90
2022-08-29T19:05:55.079Z,14.60
2022-08-29T19:08:27.860Z,14.60
2022-08-29T19:10:57.471Z,14.20
2022-08-29T19:13:26.988Z,14.90
2022-08-29T19:16:00.570Z,14.40
2022-08-29T19:21:06.732Z,14.90
2022-08-29T19:23:42.907Z,14.20
2022-08-29T19:26:17.540Z,14.60
2022-08-29T19:28:47.346Z,16.50
2022-08-29T19:33:47.582Z,16.30
2022-08-29T19:36:18.025Z,15.70
2022-08-29T19:38:47.330Z,15.60
2022-08-29T19:41:17.283Z,14.70
2022-08-29T19:43:46.016Z,16.40
2022-08-29T19:46:21.183Z,14.90
2022-08-29T19:48:52.362Z,16.00
2022-08-29T19:51:24.738Z,15.50
2022-08-29T19:53:59.491Z,15.30
2022-08-29T19:56:38.888Z,14.50
2022-08-29T19:59:24.822Z,14.30
2022-08-29T20:02:06.107Z,15.30
2022-08-29T20:04:39.395Z,17.20
2022-08-29T20:07:08.082Z,16.80
2022-08-29T20:09:37.487Z,16.90
2022-08-29T20:12:07.667Z,18.20
2022-08-29T20:14:37.517Z,16.60
2022-08-29T20:17:09.213Z,18.90
2022-08-29T20:19:39.540Z,17.50
2022-08-29T20:22:08.387Z,18.90
2022-08-29T20:24:37.363Z,17.60
2022-08-29T20:27:07.908Z,20.20
2022-08-29T20:32:12.142Z,18.00
2022-08-29T20:34:41.034Z,18.50
2022-08-29T20:37:10.740Z,19.10
2022-08-29T20:39:42.874Z,19.10
2022-08-29T20:42:11.597Z,17.70
2022-08-29T20:44:43.864Z,18.10
2022-08-29T20:47:16.446Z,20.20
2022-08-29T20:49:49.326Z,19.00
2022-08-29T20:52:20.123Z,19.30
2022-08-29T20:54:48.957Z,17.20
2022-08-29T20:57:18.014Z,15.40
2022-08-29T20:59:46.835Z,20.90
2022-08-29T21:02:15.976Z,20.40
2022-08-29T21:05:03.045Z,20.50
2022-08-29T21:07:31.628Z,21.90
2022-08-29T21:10:02.031Z,19.60
2022-08-29T21:12:31.971Z,20.80
2022-08-29T21:15:00.968Z,21.00
2022-08-29T21:17:29.852Z,19.00
2022-08-29T21:19:58.536Z,22.00
2022-08-29T21:22:27.539Z,20.90
2022-08-29T21:24:57.173Z,19.40
2022-08-29T21:27:26.948Z,19.80
2022-08-29T21:32:25.457Z,19.00
2022-08-29T21:34:54.242Z,23.50
2022-08-29T21:37:23.123Z,22.00
2022-08-29T21:39:51.914Z,23.80
2022-08-29T21:42:20.702Z,25.70
2022-08-29T21:44:49.388Z,23.80
2022-08-29T21:47:18.485Z,21.30
2022-08-29T21:49:48.806Z,20.30
2022-08-29T21:52:18.208Z,21.60
2022-08-29T21:54:49.252Z,19.30
2022-08-29T21:57:41.700Z,22.60
2022-08-29T22:00:11.101Z,22.60
2022-08-29T22:02:40.629Z,23.70
2022-08-29T22:05:09.802Z,22.70
2022-08-29T22:07:40.958Z,20.20
2022-08-29T22:10:18.660Z,20.10
2022-08-29T22:12:47.837Z,20.60
2022-08-29T22:15:35.476Z,22.80
2022-08-29T22:18:05.591Z,22.50
2022-08-29T22:20:34.474Z,23.40
2022-08-29T22:23:03.569Z,21.80
2022-08-29T22:25:32.764Z,20.20
2022-08-29T22:28:01.873Z,23.70
2022-08-29T22:30:32.406Z,21.80
2022-08-29T22:33:01.897Z,24.60
2022-08-29T22:35:30.582Z,22.10
2022-08-29T22:37:59.576Z,23.00
2022-08-29T22:40:29.046Z,22.70
2022-08-29T22:42:58.584Z,21.20
2022-08-29T22:45:28.267Z,22.90
2022-08-29T22:47:56.983Z,22.40
2022-08-29T22:50:26.790Z,21.50
2022-08-29T22:52:58.648Z,22.70
2022-08-29T22:57:55.721Z,21.50
2022-08-29T23:00:27.799Z,24.20
2022-08-29T23:02:56.880Z,20.40
2022-08-29T23:05:26.298Z,23.60
2022-08-29T23:07:55.584Z,22.40
2022-08-29T23:12:54.843Z,21.00
2022-08-29T23:15:24.405Z,22.10
2022-08-29T23:17:53.826Z,21.80
2022-08-29T23:20:23.516Z,22.80
2022-08-29T23:22:58.317Z,25.00
2022-08-29T23:25:27.138Z,21.70
2022-08-29T23:27:56.941Z,21.80
2022-08-29T23:30:26.050Z,21.90
2022-08-29T23:32:55.658Z,21.40
2022-08-29T23:35:25.052Z,23.40
2022-08-29T23:37:55.576Z,21.40
2022-08-29T23:40:24.639Z,23.30
2022-08-29T23:42:54.077Z,23.20
2022-08-29T23:45:24.650Z,22.40
2022-08-29T23:47:54.121Z,23.50
2022-08-29T23:50:24.060Z,27.00
2022-08-29T23:52:53.671Z,22.30
2022-08-29T23:55:23.345Z,22.00
2022-08-29T23:57:55.008Z,21.00
